createdAt,value
2023-01-01T00:01:40.677Z,15.60
2023-01-01T00:04:20.375Z,15.50
2023-01-01T00:06:48.751Z,15.50
2023-01-01T00:09:40.387Z,15.50
2023-01-01T00:12:08.752Z,15.50
2023-01-01T00:14:45.563Z,15.50
2023-01-01T00:17:13.938Z,15.50
2023-01-01T00:19:48.555Z,15.50
2023-01-01T00:22:52.502Z,15.50
2023-01-01T00:25:13.462Z,15.40
2023-01-01T00:27:42.078Z,15.30
2023-01-01T00:30:20.593Z,15.30
2023-01-01T00:32:55.464Z,15.20
2023-01-01T00:35:31.766Z,15.10
2023-01-01T00:38:00.316Z,15.20
2023-01-01T00:40:35.608Z,15.10
2023-01-01T00:43:04.133Z,15.10
2023-01-01T00:45:40.613Z,15.10
2023-01-01T00:48:09.175Z,15.10
2023-01-01T00:50:50.578Z,15.10
2023-01-01T00:53:19.064Z,15.10
2023-01-01T00:55:55.621Z,15.00
2023-01-01T00:58:25.722Z,15.00
2023-01-01T01:01:02.744Z,15.00
2023-01-01T01:03:31.513Z,15.00
2023-01-01T01:06:08.771Z,15.00
2023-01-01T01:08:39.492Z,15.00
2023-01-01T01:11:14.469Z,15.00
2023-01-01T01:13:44.462Z,15.00
2023-01-01T01:16:23.566Z,15.00
2023-01-01T01:18:52.704Z,15.00
2023-01-01T01:21:30.602Z,15.00
2023-01-01T01:24:00.147Z,15.00
2023-01-01T01:26:37.668Z,15.00
2023-01-01T01:29:06.413Z,15.00
2023-01-01T01:31:42.725Z,15.00
2023-01-01T01:34:16.016Z,15.00
2023-01-01T01:36:51.400Z,14.90
2023-01-01T01:39:20.343Z,15.00
2023-01-01T01:41:55.510Z,14.90
2023-01-01T01:44:56.402Z,14.90
2023-01-01T01:47:37.634Z,14.90
2023-01-01T01:50:29.464Z,14.90
2023-01-01T01:53:06.308Z,14.90
2023-01-01T01:55:43.568Z,14.90
2023-01-01T01:58:14.834Z,14.90
2023-01-01T02:00:50.642Z,15.00
2023-01-01T02:03:46.656Z,15.00
2023-01-01T02:06:21.555Z,15.00
2023-01-01T02:08:51.475Z,15.00
2023-01-01T02:11:26.537Z,14.90
2023-01-01T02:13:57.278Z,14.90
2023-01-01T02:16:36.612Z,14.90
2023-01-01T02:19:14.441Z,14.90
2023-01-01T02:22:00.484Z,14.90
2023-01-01T02:24:52.497Z,14.80
2023-01-01T02:27:40.595Z,14.80
2023-01-01T02:30:12.963Z,14.70
2023-01-01T02:32:52.556Z,14.70
2023-01-01T02:35:36.818Z,14.70
2023-01-01T02:38:15.522Z,14.70
2023-01-01T02:40:48.596Z,14.70
2023-01-01T02:43:25.189Z,14.70
2023-01-01T02:45:55.528Z,14.70
2023-01-01T02:48:47.723Z,14.60
2023-01-01T02:51:25.142Z,14.60
2023-01-01T02:54:07.744Z,14.60
2023-01-01T02:56:46.007Z,14.50
2023-01-01T02:59:47.672Z,14.50
2023-01-01T03:02:27.384Z,14.50
2023-01-01T03:05:17.550Z,14.50
2023-01-01T03:08:03.855Z,14.50
2023-01-01T03:10:47.592Z,14.40
2023-01-01T03:13:27.165Z,14.30
2023-01-01T03:16:08.619Z,14.30
2023-01-01T03:19:10.776Z,14.30
2023-01-01T03:21:49.581Z,14.30
2023-01-01T03:24:24.509Z,14.30
2023-01-01T03:27:02.671Z,14.30
2023-01-01T03:29:34.983Z,14.30
2023-01-01T03:32:12.759Z,14.40
2023-01-01T03:34:48.426Z,14.40
2023-01-01T03:37:29.564Z,14.40
2023-01-01T03:40:00.713Z,14.40
2023-01-01T03:42:39.593Z,14.40
2023-01-01T03:45:11.457Z,14.40
2023-01-01T03:47:46.565Z,14.40
2023-01-01T03:50:17.289Z,14.30
2023-01-01T03:53:05.822Z,14.30
2023-01-01T03:55:39.447Z,14.30
2023-01-01T03:58:20.606Z,14.30
2023-01-01T04:00:54.136Z,14.20
2023-01-01T04:03:31.651Z,14.10
2023-01-01T04:06:09.232Z,14.10
2023-01-01T04:08:44.663Z,14.00
2023-01-01T04:11:36.940Z,14.10
2023-01-01T04:14:11.605Z,14.10
2023-01-01T04:16:40.104Z,14.00
2023-01-01T04:19:14.656Z,14.00
2023-01-01T04:21:45.007Z,14.00
2023-01-01T04:24:21.818Z,14.00
2023-01-01T04:26:50.850Z,14.00
2023-01-01T04:29:25.792Z,14.00
2023-01-01T04:31:54.118Z,14.00
2023-01-01T04:34:29.686Z,14.00
2023-01-01T04:36:59.450Z,13.90
2023-01-01T04:39:34.680Z,13.90
2023-01-01T04:42:03.357Z,14.00
2023-01-01T04:44:38.816Z,14.00
2023-01-01T04:47:07.553Z,14.00
2023-01-01T04:49:42.654Z,14.10
2023-01-01T04:52:12.763Z,14.10
2023-01-01T04:54:47.739Z,14.00
2023-01-01T04:57:16.200Z,13.90
2023-01-01T04:59:50.645Z,13.90
2023-01-01T05:02:19.143Z,13.90
2023-01-01T05:04:53.739Z,13.80
2023-01-01T05:07:30.085Z,13.80
2023-01-01T05:10:04.828Z,13.80
2023-01-01T05:12:33.202Z,13.80
2023-01-01T05:15:08.853Z,13.80
2023-01-01T05:17:37.196Z,13.80
2023-01-01T05:20:12.863Z,13.80
2023-01-01T05:22:42.755Z,13.80
2023-01-01T05:25:17.738Z,13.80
2023-01-01T05:27:46.021Z,13.90
2023-01-01T05:30:20.842Z,13.90
2023-01-01T05:32:49.309Z,13.90
2023-01-01T05:35:26.742Z,13.90
2023-01-01T05:37:57.242Z,13.90
2023-01-01T05:40:32.819Z,13.90
2023-01-01T05:43:01.218Z,13.90
2023-01-01T05:45:35.726Z,14.00
2023-01-01T05:48:04.334Z,13.90
2023-01-01T05:50:39.692Z,14.00
2023-01-01T05:53:09.741Z,13.90
2023-01-01T05:55:44.768Z,14.00
2023-01-01T05:58:13.013Z,14.00
2023-01-01T06:00:47.679Z,14.00
2023-01-01T06:03:16.079Z,13.90
2023-01-01T06:05:57.731Z,13.90
2023-01-01T06:08:27.732Z,13.90
2023-01-01T06:11:06.711Z,13.90
2023-01-01T06:13:35.239Z,13.90
2023-01-01T06:16:10.867Z,13.90
2023-01-01T06:18:39.645Z,13.90
2023-01-01T06:21:16.736Z,13.90
2023-01-01T06:23:46.662Z,13.90
2023-01-01T06:26:23.928Z,13.80
2023-01-01T06:28:53.066Z,13.80
2023-01-01T06:31:35.413Z,13.70
2023-01-01T06:34:06.875Z,13.60
2023-01-01T06:36:41.789Z,13.50
2023-01-01T06:39:12.060Z,13.50
2023-01-01T06:41:47.135Z,13.50
2023-01-01T06:44:15.474Z,13.50
2023-01-01T06:46:50.756Z,13.40
2023-01-01T06:49:18.979Z,13.50
2023-01-01T06:51:53.934Z,13.40
2023-01-01T06:54:23.783Z,13.40
2023-01-01T06:56:58.942Z,13.40
2023-01-01T06:59:27.176Z,13.40
2023-01-01T07:02:01.927Z,13.40
2023-01-01T07:04:37.297Z,13.40
2023-01-01T07:07:17.933Z,13.40
2023-01-01T07:09:48.120Z,13.30
2023-01-01T07:12:22.795Z,13.30
2023-01-01T07:14:51.265Z,13.30
2023-01-01T07:17:25.817Z,13.30
2023-01-01T07:20:00.832Z,13.30
2023-01-01T07:22:29.371Z,13.30
2023-01-01T07:25:05.861Z,13.30
2023-01-01T07:27:34.353Z,13.30
2023-01-01T07:30:08.981Z,13.20
2023-01-01T07:32:37.485Z,13.20
2023-01-01T07:35:12.752Z,13.20
2023-01-01T07:37:41.114Z,13.20
2023-01-01T07:40:19.810Z,13.20
2023-01-01T07:42:48.219Z,13.20
2023-01-01T07:45:23.905Z,13.20
2023-01-01T07:47:54.578Z,13.20
2023-01-01T07:50:29.838Z,13.10
2023-01-01T07:52:58.207Z,13.10
2023-01-01T07:55:34.829Z,13.10
2023-01-01T07:58:03.450Z,13.10
2023-01-01T08:00:38.837Z,13.10
2023-01-01T08:03:08.417Z,13.10
2023-01-01T08:05:51.883Z,13.10
2023-01-01T08:08:20.156Z,13.00
2023-01-01T08:11:01.844Z,13.00
2023-01-01T08:13:32.448Z,13.00
2023-01-01T08:16:06.920Z,13.00
2023-01-01T08:18:35.171Z,12.90
2023-01-01T08:21:10.838Z,12.90
2023-01-01T08:23:39.400Z,12.90
2023-01-01T08:26:15.894Z,12.90
2023-01-01T08:28:44.454Z,12.80
2023-01-01T08:31:18.935Z,12.90
2023-01-01T08:33:47.738Z,12.80
2023-01-01T08:36:23.993Z,12.80
2023-01-01T08:38:52.684Z,12.80
2023-01-01T08:41:28.874Z,12.70
2023-01-01T08:43:57.172Z,12.70
2023-01-01T08:46:31.865Z,12.70
2023-01-01T08:49:00.213Z,12.60
2023-01-01T08:51:34.855Z,12.60
2023-01-01T08:54:03.259Z,12.60
2023-01-01T08:56:39.874Z,12.60
2023-01-01T08:59:08.642Z,12.60
2023-01-01T09:01:44.404Z,12.70
2023-01-01T09:04:33.248Z,12.70
2023-01-01T09:07:07.939Z,12.70
2023-01-01T09:09:36.381Z,12.70
2023-01-01T09:12:15.949Z,12.80
2023-01-01T09:14:44.471Z,12.70
2023-01-01T09:17:20.051Z,12.70
2023-01-01T09:19:48.269Z,12.70
2023-01-01T09:22:23.129Z,12.80
2023-01-01T09:24:51.427Z,12.80
2023-01-01T09:27:28.138Z,12.90
2023-01-01T09:29:56.564Z,12.90
2023-01-01T09:32:31.897Z,12.90
2023-01-01T09:35:01.192Z,12.90
2023-01-01T09:37:35.893Z,13.00
2023-01-01T09:40:05.111Z,13.00
2023-01-01T09:42:50.068Z,13.10
2023-01-01T09:45:31.243Z,13.10
2023-01-01T09:48:11.103Z,13.20
2023-01-01T09:50:42.119Z,13.20
2023-01-01T09:53:22.994Z,13.30
2023-01-01T09:55:55.399Z,13.30
2023-01-01T09:58:33.930Z,13.40
2023-01-01T10:01:10.750Z,13.40
2023-01-01T10:03:53.951Z,13.40
2023-01-01T10:06:38.384Z,13.50
2023-01-01T10:09:22.985Z,13.50
2023-01-01T10:11:57.639Z,13.50
2023-01-01T10:14:40.236Z,13.60
2023-01-01T10:17:18.735Z,13.60
2023-01-01T10:19:58.002Z,13.60
2023-01-01T10:22:34.559Z,13.70
2023-01-01T10:25:12.953Z,13.70
2023-01-01T10:27:45.884Z,13.70
2023-01-01T10:30:25.004Z,13.70
2023-01-01T10:32:55.403Z,13.70
2023-01-01T10:35:37.937Z,13.80
2023-01-01T10:38:06.832Z,13.80
2023-01-01T10:40:41.972Z,13.80
2023-01-01T10:43:13.502Z,13.80
2023-01-01T10:45:54.020Z,13.90
2023-01-01T10:48:24.115Z,13.90
2023-01-01T10:51:01.997Z,14.00
2023-01-01T10:53:32.895Z,14.10
2023-01-01T10:56:17.101Z,14.10
2023-01-01T10:58:49.073Z,14.20
2023-01-01T11:01:31.256Z,14.30
2023-01-01T11:04:01.923Z,14.30
2023-01-01T11:06:45.172Z,14.30
2023-01-01T11:09:24.468Z,14.30
2023-01-01T11:12:15.207Z,14.20
2023-01-01T11:14:53.330Z,14.20
2023-01-01T11:17:34.962Z,14.10
2023-01-01T11:20:05.911Z,14.10
2023-01-01T11:22:49.187Z,14.10
2023-01-01T11:25:21.453Z,14.20
2023-01-01T11:27:58.002Z,14.20
2023-01-01T11:30:29.290Z,14.20
2023-01-01T11:33:08.095Z,14.20
2023-01-01T11:35:49.855Z,14.20
2023-01-01T11:38:30.099Z,14.10
2023-01-01T11:41:06.178Z,14.20
2023-01-01T11:43:48.045Z,14.20
2023-01-01T11:46:25.763Z,14.20
2023-01-01T11:49:03.058Z,14.20
2023-01-01T11:51:46.614Z,14.30
2023-01-01T11:54:39.201Z,14.30
2023-01-01T11:57:17.053Z,14.20
2023-01-01T11:59:57.039Z,14.20
2023-01-01T12:02:34.235Z,14.20
2023-01-01T12:05:25.240Z,14.20
2023-01-01T12:08:04.750Z,14.30
2023-01-01T12:10:49.275Z,14.30
2023-01-01T12:13:21.548Z,14.20
2023-01-01T12:16:01.153Z,14.20
2023-01-01T12:18:35.439Z,14.30
2023-01-01T12:21:19.052Z,14.20
2023-01-01T12:23:47.691Z,14.10
2023-01-01T12:26:30.098Z,14.10
2023-01-01T12:29:19.221Z,14.10
2023-01-01T12:32:02.253Z,14.00
2023-01-01T12:34:35.223Z,14.10
2023-01-01T12:37:20.091Z,14.10
2023-01-01T12:40:36.430Z,14.10
2023-01-01T12:43:13.287Z,14.00
2023-01-01T12:46:16.953Z,14.00
2023-01-01T12:49:14.337Z,14.00
2023-01-01T12:51:48.530Z,14.00
2023-01-01T12:54:53.266Z,13.90
2023-01-01T12:57:29.592Z,13.90
2023-01-01T13:00:08.096Z,13.90
2023-01-01T13:02:40.457Z,13.90
2023-01-01T13:05:24.295Z,13.90
2023-01-01T13:08:04.664Z,13.90
2023-01-01T13:10:42.190Z,13.90
2023-01-01T13:13:13.161Z,13.80
2023-01-01T13:15:55.197Z,13.80
2023-01-01T13:18:35.500Z,13.80
2023-01-01T13:21:15.183Z,13.80
2023-01-01T13:24:22.133Z,13.80
2023-01-01T13:26:50.507Z,13.80
2023-01-01T13:29:43.349Z,13.80
2023-01-01T13:32:13.495Z,13.70
2023-01-01T13:35:23.316Z,13.70
2023-01-01T13:37:51.849Z,13.70
2023-01-01T13:40:56.229Z,13.70
2023-01-01T13:43:29.560Z,13.60
2023-01-01T13:46:12.233Z,13.60
2023-01-01T13:49:20.734Z,13.60
2023-01-01T13:52:13.109Z,13.60
2023-01-01T13:55:06.757Z,13.60
2023-01-01T13:58:19.149Z,13.60
2023-01-01T14:01:04.095Z,13.60
2023-01-01T14:03:46.126Z,13.60
2023-01-01T14:06:29.603Z,13.60
2023-01-01T14:09:14.205Z,13.50
2023-01-01T14:11:43.322Z,13.50
2023-01-01T14:14:31.168Z,13.50
2023-01-01T14:17:03.136Z,13.50
2023-01-01T14:19:38.155Z,13.50
2023-01-01T14:22:09.038Z,13.50
2023-01-01T14:24:49.328Z,13.40
2023-01-01T14:27:23.046Z,13.40
2023-01-01T14:30:00.279Z,13.40
2023-01-01T14:32:33.511Z,13.40
2023-01-01T14:35:09.236Z,13.30
2023-01-01T14:37:37.636Z,13.40
2023-01-01T14:40:24.350Z,13.40
2023-01-01T14:42:56.191Z,13.30
2023-01-01T14:45:33.367Z,13.30
2023-01-01T14:48:03.916Z,13.30
2023-01-01T14:50:41.191Z,13.30
2023-01-01T14:53:15.379Z,13.30
2023-01-01T14:55:52.242Z,13.20
2023-01-01T14:58:24.465Z,13.20
2023-01-01T15:01:00.256Z,13.20
2023-01-01T15:03:30.297Z,13.10
2023-01-01T15:06:10.232Z,13.10
2023-01-01T15:08:45.631Z,13.10
2023-01-01T15:11:23.624Z,13.10
2023-01-01T15:13:59.925Z,13.10
2023-01-01T15:16:40.329Z,13.00
2023-01-01T15:19:20.454Z,13.00
2023-01-01T15:21:55.274Z,13.00
2023-01-01T15:24:26.455Z,12.90
2023-01-01T15:27:03.319Z,12.90
2023-01-01T15:29:34.603Z,12.80
2023-01-01T15:32:12.235Z,12.80
2023-01-01T15:34:45.681Z,12.80
2023-01-01T15:37:24.264Z,12.70
2023-01-01T15:39:55.353Z,12.70
2023-01-01T15:42:36.219Z,12.70
2023-01-01T15:45:21.409Z,12.60
2023-01-01T15:47:57.274Z,12.60
2023-01-01T15:50:29.235Z,12.60
2023-01-01T15:53:07.255Z,12.60
2023-01-01T15:55:38.434Z,12.50
2023-01-01T15:58:13.371Z,12.50
2023-01-01T16:00:42.832Z,12.40
2023-01-01T16:03:27.402Z,12.40
2023-01-01T16:06:17.421Z,12.30
2023-01-01T16:08:52.260Z,12.20
2023-01-01T16:11:20.673Z,12.20
2023-01-01T16:13:55.324Z,12.10
2023-01-01T16:16:29.571Z,12.10
2023-01-01T16:19:05.453Z,12.10
2023-01-01T16:21:35.453Z,12.00
2023-01-01T16:24:10.384Z,12.00
2023-01-01T16:26:39.169Z,12.00
2023-01-01T16:29:14.458Z,11.90
2023-01-01T16:31:44.208Z,11.90
2023-01-01T16:34:21.440Z,11.80
2023-01-01T16:36:51.493Z,11.80
2023-01-01T16:39:27.353Z,11.80
2023-01-01T16:41:59.592Z,11.80
2023-01-01T16:44:34.315Z,11.80
2023-01-01T16:47:03.101Z,11.80
2023-01-01T16:49:38.485Z,11.80
2023-01-01T16:52:08.187Z,11.70
2023-01-01T16:54:43.365Z,11.70
2023-01-01T16:57:11.713Z,11.70
2023-01-01T16:59:46.498Z,11.70
2023-01-01T17:02:15.171Z,11.60
2023-01-01T17:04:50.372Z,11.60
2023-01-01T17:07:27.025Z,11.60
2023-01-01T17:10:02.286Z,11.60
2023-01-01T17:12:31.129Z,11.50
2023-01-01T17:15:06.369Z,11.50
2023-01-01T17:17:35.000Z,11.50
2023-01-01T17:20:10.323Z,11.40
2023-01-01T17:22:40.485Z,11.40
2023-01-01T17:25:16.601Z,11.40
2023-01-01T17:27:45.952Z,11.30
2023-01-01T17:30:22.405Z,11.30
2023-01-01T17:32:50.669Z,11.30
2023-01-01T17:35:31.425Z,11.30
2023-01-01T17:38:02.978Z,11.20
2023-01-01T17:40:38.519Z,11.10
2023-01-01T17:43:06.815Z,11.10
2023-01-01T17:45:44.345Z,11.10
2023-01-01T17:48:12.825Z,11.00
2023-01-01T17:50:47.455Z,11.00
2023-01-01T17:53:17.095Z,11.00
2023-01-01T17:55:52.410Z,11.10
2023-01-01T17:58:20.691Z,11.00
2023-01-01T18:00:56.441Z,11.00
2023-01-01T18:03:24.754Z,11.00
2023-01-01T18:06:04.356Z,11.10
2023-01-01T18:08:41.199Z,11.10
2023-01-01T18:11:16.659Z,11.10
2023-01-01T18:13:45.038Z,11.10
2023-01-01T18:16:20.437Z,11.10
2023-01-01T18:18:49.133Z,11.10
2023-01-01T18:21:28.424Z,11.10
2023-01-01T18:23:59.388Z,11.10
2023-01-01T18:26:36.567Z,11.00
2023-01-01T18:29:05.455Z,11.00
2023-01-01T18:31:41.775Z,11.00
2023-01-01T18:34:12.184Z,10.90
2023-01-01T18:36:50.097Z,10.90
2023-01-01T18:39:23.341Z,10.90
2023-01-01T18:42:34.521Z,10.90
2023-01-01T18:45:16.506Z,10.90
2023-01-01T18:47:46.620Z,10.90
2023-01-01T18:50:30.445Z,11.00
2023-01-01T18:53:04.376Z,11.00
2023-01-01T18:55:41.593Z,11.00
2023-01-01T18:58:17.411Z,11.00
2023-01-01T19:00:53.436Z,11.00
2023-01-01T19:03:28.371Z,11.00
2023-01-01T19:06:10.588Z,11.00
2023-01-01T19:08:45.836Z,11.20
2023-01-01T19:11:29.616Z,11.10
2023-01-01T19:14:03.961Z,11.10
2023-01-01T19:16:39.427Z,11.10
2023-01-01T19:19:16.607Z,11.10
2023-01-01T19:21:52.645Z,11.10
2023-01-01T19:24:24.736Z,11.10
2023-01-01T19:27:04.453Z,11.10
2023-01-01T19:29:33.053Z,11.10
2023-01-01T19:32:08.528Z,11.10
2023-01-01T19:34:38.785Z,11.10
2023-01-01T19:37:14.461Z,11.10
2023-01-01T19:39:43.946Z,11.10
2023-01-01T19:42:20.455Z,11.10
2023-01-01T19:44:48.889Z,11.10
2023-01-01T19:47:23.471Z,11.10
2023-01-01T19:49:55.568Z,11.10
2023-01-01T19:52:30.495Z,11.10
2023-01-01T19:54:59.295Z,11.10
2023-01-01T19:57:35.475Z,11.10
2023-01-01T20:00:05.603Z,11.10
2023-01-01T20:02:48.526Z,11.10
2023-01-01T20:05:17.431Z,11.10
2023-01-01T20:07:59.687Z,11.10
2023-01-01T20:10:30.474Z,11.10
2023-01-01T20:13:06.720Z,11.10
2023-01-01T20:15:35.148Z,11.00
2023-01-01T20:18:09.845Z,11.10
2023-01-01T20:20:58.084Z,11.10
2023-01-01T20:23:32.685Z,11.00
2023-01-01T20:26:01.038Z,11.10
2023-01-01T20:28:51.519Z,11.00
2023-01-01T20:31:19.877Z,11.00
2023-01-01T20:33:55.867Z,11.10
2023-01-01T20:36:41.526Z,11.10
2023-01-01T20:39:16.685Z,11.10
2023-01-01T20:41:45.465Z,11.10
2023-01-01T20:44:21.588Z,11.10
2023-01-01T20:46:50.052Z,11.20
2023-01-01T20:49:25.497Z,11.20
2023-01-01T20:51:54.651Z,11.30
2023-01-01T20:54:30.537Z,11.30
2023-01-01T20:56:59.179Z,11.30
2023-01-01T20:59:37.273Z,11.30
2023-01-01T21:02:07.064Z,11.20
2023-01-01T21:04:44.556Z,11.30
2023-01-01T21:07:20.962Z,11.20
2023-01-01T21:09:55.606Z,11.30
2023-01-01T21:12:23.889Z,11.20
2023-01-01T21:15:03.725Z,11.30
2023-01-01T21:17:32.394Z,11.30
2023-01-01T21:20:07.523Z,11.30
2023-01-01T21:22:36.006Z,11.30
2023-01-01T21:25:49.928Z,11.30
2023-01-01T21:28:14.343Z,11.20
2023-01-01T21:30:57.739Z,11.30
2023-01-01T21:33:28.653Z,11.30
2023-01-01T21:36:03.576Z,11.30
2023-01-01T21:38:33.343Z,11.30
2023-01-01T21:41:10.605Z,11.30
2023-01-01T21:43:41.021Z,11.30
2023-01-01T21:46:41.627Z,11.30
2023-01-01T21:49:24.643Z,11.30
2023-01-01T21:51:56.388Z,11.30
2023-01-01T21:54:34.647Z,11.30
2023-01-01T21:57:13.848Z,11.40
2023-01-01T21:59:51.646Z,11.30
2023-01-01T22:02:39.753Z,11.40
2023-01-01T22:05:36.625Z,11.40
2023-01-01T22:08:29.901Z,11.40
2023-01-01T22:11:05.577Z,11.40
2023-01-01T22:13:33.957Z,11.40
2023-01-01T22:16:09.604Z,11.40
2023-01-01T22:18:40.955Z,11.40
2023-01-01T22:21:22.612Z,11.50
2023-01-01T22:23:54.144Z,11.50
2023-01-01T22:26:34.609Z,11.50
2023-01-01T22:29:05.406Z,11.60
2023-01-01T22:31:49.314Z,11.60
2023-01-01T22:34:24.395Z,11.60
2023-01-01T22:36:59.865Z,11.60
2023-01-01T22:39:32.319Z,11.60
2023-01-01T22:42:07.687Z,11.70
2023-01-01T22:44:37.335Z,11.70
2023-01-01T22:47:13.751Z,11.70
2023-01-01T22:49:46.989Z,11.70
2023-01-01T22:52:21.691Z,11.80
2023-01-01T22:54:50.249Z,11.80
2023-01-01T22:57:25.708Z,11.80
2023-01-01T22:59:54.484Z,11.80
2023-01-01T23:02:29.969Z,11.80
2023-01-01T23:05:00.027Z,11.80
2023-01-01T23:07:48.853Z,11.80
2023-01-01T23:10:17.688Z,11.90
2023-01-01T23:12:52.643Z,11.90
2023-01-01T23:15:37.325Z,11.90
2023-01-01T23:18:12.658Z,12.00
2023-01-01T23:20:43.246Z,12.00
2023-01-01T23:23:18.863Z,12.00
2023-01-01T23:25:47.384Z,12.00
2023-01-01T23:28:22.715Z,12.10
2023-01-01T23:30:51.366Z,12.10
2023-01-01T23:33:26.732Z,12.10
2023-01-01T23:35:57.456Z,12.20
2023-01-01T23:38:33.841Z,12.20
2023-01-01T23:41:02.637Z,12.20
2023-01-01T23:43:43.256Z,12.30
2023-01-01T23:46:14.167Z,12.30
2023-01-01T23:48:49.670Z,12.30
2023-01-01T23:51:20.560Z,12.40
2023-01-01T23:53:55.872Z,12.40
2023-01-01T23:56:24.220Z,12.40
2023-01-01T23:58:59.894Z,12.50
